Time;durP1;ratioP1;P1;durP2;ratioP2;P2;SDS_P1;SDS_P2;PMS_P1;PMS_P2;Temp;Humidity;BMP_temperature;BMP_pressure;BME280_temperature;BME280_humidity;BME280_pressure;Samples;Min_cycle;Max_cycle;Signal;HPM_P1;HPM_P2
2022/03/26 00:00:29;;;;;;;;;50.50;41.00;;;;;13.46;40.51;102143.91;5028069;28;45212;-84
2022/03/26 00:02:56;;;;;;;;;61.50;47.75;;;;;13.44;40.90;102135.88;5028480;28;45184;-84
2022/03/26 00:05:22;;;;;;;;;56.25;45.75;;;;;13.41;41.22;102141.94;5010476;28;45194;-83
2022/03/26 00:07:47;;;;;;;;;58.25;47.00;;;;;13.17;40.83;102096.81;5028654;28;45168;-84
2022/03/26 00:10:12;;;;;;;;;58.00;46.50;;;;;13.11;41.06;102082.44;5027325;28;45171;-84
2022/03/26 00:12:39;;;;;;;;;57.75;45.75;;;;;13.20;40.89;102109.25;5028741;28;45176;-84
2022/03/26 00:15:05;;;;;;;;;58.75;45.50;;;;;13.15;41.24;102100.19;5028531;28;45450;-84
2022/03/26 00:17:31;;;;;;;;;58.25;43.75;;;;;13.11;41.06;102099.19;5014317;28;45437;-83
2022/03/26 00:19:56;;;;;;;;;58.50;46.00;;;;;13.05;41.22;102092.69;4999555;28;46218;-83
2022/03/26 00:22:22;;;;;;;;;55.00;45.00;;;;;13.21;41.36;102120.72;5009160;28;45195;-83
2022/03/26 00:24:47;;;;;;;;;59.25;46.75;;;;;13.20;41.19;102117.19;5008492;28;45211;-84
2022/03/26 00:27:14;;;;;;;;;55.75;43.75;;;;;13.19;41.46;102115.34;5008783;28;45300;-82
2022/03/26 00:29:39;;;;;;;;;57.25;45.25;;;;;12.80;41.22;102054.63;5007834;28;45454;-82
2022/03/26 00:32:06;;;;;;;;;54.75;45.00;;;;;13.01;41.43;102091.66;5008745;28;45015;-83
2022/03/26 00:34:32;;;;;;;;;50.75;41.25;;;;;13.23;41.33;102141.09;5008401;28;45034;-83
2022/03/26 00:36:58;;;;;;;;;56.00;43.25;;;;;13.21;41.49;102134.81;5008605;28;45180;-84
2022/03/26 00:39:24;;;;;;;;;56.50;46.50;;;;;13.09;41.80;102123.69;5008213;28;45499;-83
2022/03/26 00:41:50;;;;;;;;;54.00;44.00;;;;;12.77;41.70;102079.97;5005416;28;45516;-83
2022/03/26 00:44:16;;;;;;;;;57.00;45.75;;;;;12.89;41.82;102102.53;5008746;28;45883;-83
2022/03/26 00:46:45;;;;;;;;;58.75;44.75;;;;;12.68;41.82;102059.31;5007479;28;45185;-83
2022/03/26 00:49:11;;;;;;;;;60.00;45.75;;;;;12.76;41.98;102088.69;5008380;28;45962;-84
2022/03/26 00:51:37;;;;;;;;;56.25;45.50;;;;;12.63;41.79;102056.47;5006438;28;45065;-83
2022/03/26 00:54:02;;;;;;;;;56.25;45.00;;;;;12.75;41.90;102090.44;5008438;28;45408;-82
2022/03/26 00:56:28;;;;;;;;;54.75;45.25;;;;;12.84;41.91;102114.63;5007758;28;44989;-84
2022/03/26 00:58:53;;;;;;;;;54.50;43.50;;;;;12.82;41.98;102105.72;5008133;28;45256;-84
2022/03/26 01:01:18;;;;;;;;;53.75;43.50;;;;;12.57;42.25;102061.47;4989598;28;45103;-83
2022/03/26 01:03:44;;;;;;;;;55.50;44.25;;;;;12.62;42.36;102075.78;5008420;28;45012;-84
2022/03/26 01:06:09;;;;;;;;;57.33;44.00;;;;;12.43;42.22;102041.44;5008572;28;45014;-83
2022/03/26 01:08:34;;;;;;;;;56.25;45.00;;;;;12.76;42.30;102102.81;5007873;28;45348;-83
2022/03/26 01:11:00;;;;;;;;;55.00;45.00;;;;;12.59;42.24;102066.81;5008592;28;45023;-83
2022/03/26 01:13:25;;;;;;;;;56.50;45.00;;;;;12.69;42.53;102098.06;4990486;28;45703;-83
2022/03/26 01:15:52;;;;;;;;;57.00;45.50;;;;;12.78;42.58;102102.88;5007368;28;45327;-84
2022/03/26 01:18:17;;;;;;;;;62.25;47.75;;;;;12.82;42.51;102126.84;4986661;28;46527;-82
2022/03/26 01:20:43;;;;;;;;;60.50;45.75;;;;;12.29;42.70;102035.50;5000206;28;45357;-83
2022/03/26 01:23:09;;;;;;;;;55.75;45.00;;;;;12.64;42.77;102113.66;5010838;28;45003;-83
2022/03/26 01:25:35;;;;;;;;;56.75;45.00;;;;;12.23;42.82;102042.22;5011215;28;45047;-83
2022/03/26 01:28:01;;;;;;;;;61.50;47.50;;;;;12.45;42.77;102079.31;5011682;28;45631;-82
2022/03/26 01:30:26;;;;;;;;;59.00;46.00;;;;;12.31;42.78;102061.94;5010372;28;45144;-82
2022/03/26 01:32:53;;;;;;;;;57.50;46.00;;;;;12.68;42.83;102124.38;5011642;28;44971;-84
2022/03/26 01:35:18;;;;;;;;;56.50;45.25;;;;;12.65;42.88;102120.75;5011548;28;45358;-83
2022/03/26 01:37:44;;;;;;;;;58.25;46.50;;;;;12.20;43.09;102045.59;5011202;28;45897;-83
2022/03/26 01:40:10;;;;;;;;;54.25;44.75;;;;;12.35;43.20;102069.16;5010712;28;45189;-83
2022/03/26 01:42:35;;;;;;;;;55.25;44.00;;;;;12.34;43.24;102073.53;5011381;28;45194;-83
2022/03/26 01:45:00;;;;;;;;;59.50;44.75;;;;;12.43;43.00;102088.00;5009511;28;45184;-83
2022/03/26 01:47:26;;;;;;;;;57.33;46.00;;;;;12.27;43.70;102058.25;5011244;28;46081;-83
2022/03/26 01:49:51;;;;;;;;;60.25;47.75;;;;;11.98;43.47;102016.41;5011077;28;45370;-83
2022/03/26 01:52:17;;;;;;;;;58.75;47.00;;;;;12.19;43.98;102050.81;5010933;28;45015;-83
2022/03/26 01:54:43;;;;;;;;;62.50;47.25;;;;;12.08;43.37;102034.47;5009248;28;45102;-82
2022/03/26 01:57:10;;;;;;;;;53.50;41.50;;;;;12.46;43.74;102102.22;5010927;28;45667;-83
2022/03/26 01:59:37;;;;;;;;;56.50;45.25;;;;;12.07;43.68;102040.56;4992140;28;45648;-84
2022/03/26 02:02:03;;;;;;;;;54.50;43.00;;;;;12.14;44.36;102054.13;5011699;28;45140;-83
2022/03/26 02:04:29;;;;;;;;;57.50;46.50;;;;;12.21;44.29;102071.13;5011376;28;45205;-83
2022/03/26 02:06:54;;;;;;;;;55.50;45.75;;;;;12.29;43.98;102084.69;5010258;28;45349;-84
2022/03/26 02:09:20;;;;;;;;;57.25;46.50;;;;;12.23;44.02;102079.13;5011003;28;45098;-84
2022/03/26 02:11:46;;;;;;;;;54.75;44.25;;;;;11.94;43.73;102035.53;5009982;28;45348;-83
2022/03/26 02:14:13;;;;;;;;;53.75;40.25;;;;;12.35;43.81;102099.06;5010741;28;44959;-83
2022/03/26 02:16:41;;;;;;;;;56.50;46.25;;;;;12.06;44.12;102054.56;5010288;28;45231;-83
2022/03/26 02:19:08;;;;;;;;;53.25;44.00;;;;;12.32;44.55;102098.03;4992937;28;46201;-83
2022/03/26 02:21:35;;;;;;;;;46.75;38.50;;;;;11.97;44.53;102044.50;5010689;28;45235;-83
2022/03/26 02:24:03;;;;;;;;;56.75;46.50;;;;;12.02;45.03;102071.03;5011102;28;45204;-83
2022/03/26 02:26:30;;;;;;;;;57.00;44.75;;;;;12.01;44.55;102074.50;5009969;28;45214;-83
2022/03/26 02:28:57;;;;;;;;;55.50;45.25;;;;;11.90;44.76;102052.00;5010986;28;45172;-82
2022/03/26 02:31:26;;;;;;;;;54.50;44.00;;;;;12.10;44.62;102093.41;5009718;28;45155;-83
2022/03/26 02:33:53;;;;;;;;;54.25;42.50;;;;;12.11;44.95;102104.03;5009991;28;44956;-83
2022/03/26 02:36:18;;;;;;;;;59.50;46.00;;;;;11.78;44.86;102045.25;5008983;28;46839;-83
2022/03/26 02:38:44;;;;;;;;;55.50;45.50;;;;;11.76;44.65;102051.25;5010369;28;45019;-84
2022/03/26 02:41:09;;;;;;;;;51.50;41.75;;;;;11.26;44.46;101960.97;5010423;28;44971;-84
2022/03/26 02:43:35;;;;;;;;;53.25;44.00;;;;;12.06;44.58;102108.16;5010028;28;44987;-84
2022/03/26 02:46:01;;;;;;;;;54.75;43.25;;;;;11.85;44.51;102064.94;5007956;28;45318;-84
2022/03/26 02:48:27;;;;;;;;;52.75;42.50;;;;;11.97;44.79;102090.97;5009909;28;45050;-83
2022/03/26 02:50:53;;;;;;;;;56.00;44.25;;;;;11.58;44.80;102025.81;5010518;28;45074;-83
2022/03/26 02:53:18;;;;;;;;;55.75;45.00;;;;;11.92;44.84;102092.47;5009844;28;45115;-83
2022/03/26 02:55:44;;;;;;;;;53.67;43.00;;;;;11.69;44.88;102046.53;5009873;28;45953;-84
2022/03/26 02:58:10;;;;;;;;;54.50;44.50;;;;;11.80;44.88;102074.31;4991924;28;45150;-82
2022/03/26 03:00:39;;;;;;;;;55.75;45.75;;;;;11.72;44.91;102063.34;5009590;28;45153;-83
2022/03/26 03:03:08;;;;;;;;;54.75;43.00;;;;;11.54;44.77;102039.63;5010280;28;44980;-83
2022/03/26 03:05:34;;;;;;;;;54.25;42.00;;;;;11.88;45.02;102094.97;5009740;28;45265;-83
2022/03/26 03:08:01;;;;;;;;;55.00;44.00;;;;;11.60;44.88;102046.94;5010432;28;45129;-82
2022/03/26 03:10:27;;;;;;;;;52.50;43.75;;;;;11.66;44.98;102054.25;5009635;28;45311;-83
2022/03/26 03:12:53;;;;;;;;;57.25;45.50;;;;;11.87;44.83;102092.25;4988909;28;44991;-82
2022/03/26 03:15:19;;;;;;;;;55.00;43.00;;;;;11.37;44.96;102008.91;4987984;28;47690;-82
2022/03/26 03:17:46;;;;;;;;;55.25;44.50;;;;;11.69;44.95;102067.59;4990109;28;45027;-82
2022/03/26 03:20:14;;;;;;;;;52.50;42.50;;;;;11.59;45.17;102053.03;4990104;28;45152;-84
2022/03/26 03:22:39;;;;;;;;;56.75;45.00;;;;;11.53;44.95;102042.22;4989513;28;45567;-83
2022/03/26 03:25:06;;;;;;;;;57.00;43.33;;;;;11.53;45.39;102047.47;4989559;28;46131;-83
2022/03/26 03:27:32;;;;;;;;;54.50;45.75;;;;;11.65;45.35;102077.06;4989592;28;45511;-82
2022/03/26 03:29:57;;;;;;;;;61.00;45.50;;;;;11.63;45.53;102082.25;4989866;28;45196;-83
2022/03/26 03:32:23;;;;;;;;;58.50;46.75;;;;;11.48;45.41;102054.22;4989612;28;45044;-83
2022/03/26 03:34:51;;;;;;;;;55.50;43.50;;;;;11.48;45.68;102064.75;4989736;28;45250;-83
2022/03/26 03:37:17;;;;;;;;;51.50;43.00;;;;;11.50;45.55;102076.25;4989331;28;45059;-83
2022/03/26 03:39:43;;;;;;;;;58.75;47.25;;;;;11.47;45.48;102066.47;4989445;28;45098;-82
2022/03/26 03:42:09;;;;;;;;;54.50;45.00;;;;;11.57;45.49;102083.63;4990249;28;45129;-83
2022/03/26 03:44:35;;;;;;;;;54.75;45.00;;;;;11.25;45.79;102043.38;4988869;28;45573;-82
2022/03/26 03:47:00;;;;;;;;;58.75;45.50;;;;;11.56;45.99;102108.16;4989683;28;45080;-83
2022/03/26 03:49:26;;;;;;;;;54.75;44.50;;;;;11.20;46.34;102042.25;4990588;28;45105;-83
2022/03/26 03:51:53;;;;;;;;;58.50;45.25;;;;;11.02;46.52;102018.47;5008843;28;45038;-83
2022/03/26 03:54:19;;;;;;;;;55.25;44.25;;;;;11.13;46.62;102040.09;5008596;28;45322;-82
2022/03/26 03:56:44;;;;;;;;;58.25;45.50;;;;;10.95;46.47;102021.63;5009338;28;45120;-83
2022/03/26 03:59:10;;;;;;;;;62.00;47.75;;;;;10.97;46.37;102022.59;5009227;28;45145;-84
2022/03/26 04:01:35;;;;;;;;;57.50;45.25;;;;;11.19;45.96;102069.41;5008879;28;45311;-83
2022/03/26 04:04:00;;;;;;;;;60.50;47.50;;;;;11.02;46.54;102043.88;5009064;28;45678;-83
2022/03/26 04:06:26;;;;;;;;;56.33;43.67;;;;;10.99;46.56;102034.13;5008704;28;45448;-83
2022/03/26 04:08:51;;;;;;;;;56.00;44.25;;;;;11.06;46.92;102056.41;5009376;28;44944;-83
2022/03/26 04:11:17;;;;;;;;;57.67;45.33;;;;;10.81;47.79;102018.25;5008467;28;45279;-83
2022/03/26 04:13:42;;;;;;;;;53.75;44.25;;;;;11.17;46.92;102089.44;4990649;28;47787;-83
2022/03/26 04:16:08;;;;;;;;;57.25;46.00;;;;;11.18;47.03;102101.81;5008816;28;45111;-83
2022/03/26 04:18:34;;;;;;;;;52.75;43.50;;;;;10.97;46.73;102066.41;5008823;28;45008;-83
2022/03/26 04:20:59;;;;;;;;;58.25;45.50;;;;;10.75;46.85;102032.81;5008974;28;45381;-82
2022/03/26 04:23:25;;;;;;;;;59.00;45.75;;;;;10.99;46.86;102070.97;5008762;28;45336;-83
2022/03/26 04:25:50;;;;;;;;;53.00;42.33;;;;;10.79;47.01;102046.22;5008219;28;45334;-83
2022/03/26 04:28:16;;;;;;;;;55.00;43.00;;;;;11.01;47.28;102084.19;5008346;28;45051;-82
2022/03/26 04:30:42;;;;;;;;;54.75;45.25;;;;;10.75;47.47;102046.84;5008417;28;45192;-83
2022/03/26 04:33:07;;;;;;;;;54.00;42.25;;;;;10.75;47.31;102038.06;5008828;28;45875;-83
2022/03/26 04:35:33;;;;;;;;;52.50;43.00;;;;;10.72;47.22;102037.88;5008245;28;45045;-84
2022/03/26 04:37:59;;;;;;;;;57.75;44.50;;;;;10.98;47.41;102084.00;5009173;28;44933;-83
2022/03/26 04:40:26;;;;;;;;;54.50;41.75;;;;;10.93;47.78;102082.84;5008485;28;45047;-83
2022/03/26 04:42:52;;;;;;;;;53.50;43.25;;;;;10.62;47.82;102035.56;5008385;28;45382;-83
2022/03/26 04:45:17;;;;;;;;;56.25;42.50;;;;;10.81;48.31;102091.00;5008091;28;45350;-83
2022/03/26 04:47:43;;;;;;;;;55.33;44.00;;;;;10.87;48.17;102098.31;5008482;28;45138;-82
2022/03/26 04:50:10;;;;;;;;;57.50;46.25;;;;;10.72;48.81;102090.47;5006865;28;45398;-83
2022/03/26 04:52:35;;;;;;;;;59.75;44.50;;;;;10.30;48.27;102025.09;5008558;28;45704;-83
2022/03/26 04:55:02;;;;;;;;;50.50;40.25;;;;;10.52;48.66;102069.22;4990667;28;45010;-82
2022/03/26 04:57:27;;;;;;;;;56.00;45.00;;;;;10.48;48.66;102069.88;5008146;28;45520;-83
2022/03/26 04:59:53;;;;;;;;;51.00;43.33;;;;;10.44;49.16;102074.88;5012236;28;45014;-83
2022/03/26 05:02:18;;;;;;;;;54.25;43.00;;;;;10.60;49.09;102119.63;5011754;28;45811;-83
2022/03/26 05:04:43;;;;;;;;;54.75;46.00;;;;;10.19;49.53;102043.63;5011769;28;45061;-83
2022/03/26 05:09:52;;;;;;;;;59.00;45.25;;;;;10.20;49.04;102066.50;5011957;28;44959;-82
2022/03/26 05:12:18;;;;;;;;;61.00;45.50;;;;;10.06;49.52;102039.44;5009988;28;45788;-82
2022/03/26 05:14:44;;;;;;;;;57.50;45.75;;;;;10.13;49.37;102059.97;5011436;28;45196;-83
2022/03/26 05:17:10;;;;;;;;;55.00;44.25;;;;;10.31;49.36;102100.47;5012037;28;45017;-83
2022/03/26 05:19:35;;;;;;;;;53.00;42.75;;;;;10.11;49.77;102069.50;5011240;28;44982;-82
2022/03/26 05:22:00;;;;;;;;;50.00;41.50;;;;;10.00;49.47;102058.38;5011770;28;45590;-83
2022/03/26 05:24:26;;;;;;;;;50.75;41.25;;;;;10.04;50.24;102068.22;5009895;28;45459;-83
2022/03/26 05:26:52;;;;;;;;;55.50;44.50;;;;;10.02;50.72;102083.00;5011399;28;45387;-84
2022/03/26 05:29:17;;;;;;;;;56.00;43.50;;;;;10.20;50.33;102125.19;5011608;28;45153;-81
2022/03/26 05:31:43;;;;;;;;;56.75;44.25;;;;;10.06;50.19;102105.09;5006483;28;46227;-83
2022/03/26 05:34:09;;;;;;;;;52.25;41.00;;;;;9.96;50.32;102090.53;5010303;28;45010;-83
2022/03/26 05:36:34;;;;;;;;;52.25;43.00;;;;;10.06;50.68;102118.22;4993227;28;45167;-83
2022/03/26 05:38:59;;;;;;;;;56.75;46.00;;;;;10.05;50.64;102119.06;5011608;28;45414;-84
2022/03/26 05:41:26;;;;;;;;;52.67;43.00;;;;;9.77;50.82;102064.00;5010295;28;45342;-83
2022/03/26 05:43:51;;;;;;;;;54.75;43.75;;;;;9.94;50.80;102104.34;5009157;28;45213;-84
2022/03/26 05:46:16;;;;;;;;;58.50;47.75;;;;;9.99;51.00;102109.06;5010877;28;45445;-85
2022/03/26 05:48:42;;;;;;;;;52.00;41.25;;;;;9.71;51.06;102071.53;5011240;28;45029;-84
2022/03/26 05:51:07;;;;;;;;;53.75;41.00;;;;;9.73;51.07;102081.28;5010866;28;46069;-83
2022/03/26 05:53:33;;;;;;;;;50.50;41.75;;;;;9.72;51.27;102089.06;5011288;28;45075;-83
2022/03/26 05:55:58;;;;;;;;;58.00;42.50;;;;;9.92;50.29;102125.28;5011371;28;45232;-83
2022/03/26 05:58:25;;;;;;;;;58.75;42.25;;;;;9.70;49.88;102078.47;5010421;28;45010;-84
2022/03/26 06:00:50;;;;;;;;;53.25;44.25;;;;;10.06;49.60;102134.91;4993366;28;47440;-83
2022/03/26 06:03:17;;;;;;;;;54.50;43.25;;;;;10.08;49.71;102129.72;5010191;28;45045;-83
2022/03/26 06:05:42;;;;;;;;;57.00;45.25;;;;;9.97;49.58;102102.81;5010631;28;45069;-83
2022/03/26 06:08:08;;;;;;;;;49.33;41.00;;;;;10.20;49.33;102133.09;5008212;28;44973;-84
2022/03/26 06:10:35;;;;;;;;;53.00;43.50;;;;;9.55;49.52;102006.69;4996027;28;45425;-83
2022/03/26 06:13:00;;;;;;;;;54.25;45.50;;;;;9.95;49.77;102072.97;4981216;28;45513;-82
2022/03/26 06:15:25;;;;;;;;;56.25;44.25;;;;;10.09;49.34;102082.50;4997473;28;45690;-81
2022/03/26 06:17:51;;;;;;;;;56.00;44.00;;;;;10.44;49.57;102135.31;5006713;28;45404;-84
2022/03/26 06:20:16;;;;;;;;;55.25;44.25;;;;;10.24;48.94;102095.66;5003890;28;45874;-83
2022/03/26 06:22:41;;;;;;;;;39.00;33.75;;;;;10.26;48.94;102087.88;5010052;28;45129;-85
2022/03/26 06:25:07;;;;;;;;;59.00;45.33;;;;;10.46;49.13;102123.19;5004109;28;44980;-82
2022/03/26 06:27:33;;;;;;;;;56.00;44.25;;;;;10.42;49.82;102108.06;4978258;28;45557;-84
2022/03/26 06:29:58;;;;;;;;;52.00;44.00;;;;;10.71;49.49;102157.03;4991306;28;45849;-84
2022/03/26 06:32:23;;;;;;;;;57.50;45.00;;;;;9.96;50.02;102039.72;4998937;28;45037;-84
2022/03/26 06:34:49;;;;;;;;;56.75;46.00;;;;;10.32;49.26;102088.22;5004128;28;45383;-84
2022/03/26 06:37:14;;;;;;;;;54.25;42.50;;;;;10.51;49.32;102116.47;4989317;28;45232;-82
2022/03/26 06:39:40;;;;;;;;;53.50;43.00;;;;;10.49;48.76;102108.50;5012383;28;45424;-82
2022/03/26 06:42:06;;;;;;;;;51.00;41.75;;;;;10.46;48.64;102105.69;5007789;28;45405;-80
2022/03/26 06:44:31;;;;;;;;;55.50;42.25;;;;;10.68;48.41;102112.16;4999076;28;45219;-83
2022/03/26 06:46:56;;;;;;;;;56.00;44.00;;;;;10.89;48.04;102146.66;4993746;28;45083;-84
2022/03/26 06:49:22;;;;;;;;;52.00;43.00;;;;;10.63;48.24;102100.47;4990207;28;45775;-82
2022/03/26 06:51:47;;;;;;;;;60.00;45.25;;;;;10.96;48.07;102151.41;5008099;28;45133;-82
2022/03/26 06:54:15;;;;;;;;;55.25;43.00;;;;;10.78;47.85;102104.84;5009713;28;45070;-83
2022/03/26 06:56:41;;;;;;;;;53.00;43.25;;;;;10.94;47.81;102135.56;5003107;28;45220;-83
2022/03/26 06:59:06;;;;;;;;;55.75;44.00;;;;;10.81;47.72;102107.66;4991018;28;46883;-84
2022/03/26 07:01:32;;;;;;;;;51.50;42.50;;;;;11.04;47.66;102148.41;4989766;28;45154;-83
2022/03/26 07:03:58;;;;;;;;;55.50;44.25;;;;;11.31;47.49;102184.94;4990296;28;45083;-83
2022/03/26 07:06:24;;;;;;;;;54.50;43.25;;;;;11.22;47.21;102164.28;4991179;28;45013;-82
2022/03/26 07:08:49;;;;;;;;;51.75;42.00;;;;;11.37;47.13;102191.44;5000809;28;45208;-84
2022/03/26 07:11:16;;;;;;;;;51.75;42.50;;;;;10.75;46.93;102081.03;5008060;28;44990;-84
2022/03/26 07:13:41;;;;;;;;;49.25;41.00;;;;;11.06;46.94;102115.19;5005894;28;45235;-81
2022/03/26 07:16:07;;;;;;;;;57.00;45.50;;;;;11.46;46.88;102179.59;5005125;28;45117;-83
2022/03/26 07:18:33;;;;;;;;;55.75;44.75;;;;;11.15;46.87;102119.13;5007691;28;45394;-83
2022/03/26 07:21:00;;;;;;;;;59.50;44.50;;;;;10.62;46.82;102025.97;5008726;28;45334;-84
2022/03/26 07:23:26;;;;;;;;;53.00;41.50;;;;;11.58;46.75;102186.44;5007838;28;45124;-83
2022/03/26 07:25:52;;;;;;;;;47.25;39.75;;;;;11.36;47.07;102146.59;5008815;28;45246;-83
2022/03/26 07:28:18;;;;;;;;;59.25;46.00;;;;;11.40;46.37;102142.41;5005225;28;45571;-84
2022/03/26 07:30:43;;;;;;;;;56.00;45.50;;;;;11.48;46.47;102144.66;4990421;28;45170;-83
2022/03/26 07:33:09;;;;;;;;;52.00;43.00;;;;;11.51;46.41;102151.78;5006804;28;45559;-81
2022/03/26 07:35:34;;;;;;;;;60.33;47.00;;;;;11.49;46.39;102142.91;5005112;28;45087;-85
2022/03/26 07:37:59;;;;;;;;;56.75;44.75;;;;;11.65;46.44;102170.97;5006161;28;45894;-82
2022/03/26 07:40:25;;;;;;;;;54.00;42.33;;;;;11.84;46.01;102194.84;4988336;28;45095;-82
2022/03/26 07:42:50;;;;;;;;;57.00;46.25;;;;;11.56;46.02;102143.31;5009037;28;45598;-82
2022/03/26 07:45:15;;;;;;;;;53.00;42.25;;;;;11.63;46.07;102152.44;5005601;28;45490;-82
2022/03/26 07:47:41;;;;;;;;;59.33;48.67;;;;;11.83;46.09;102191.31;5007736;28;45818;-84
2022/03/26 07:50:08;;;;;;;;;58.25;46.75;;;;;11.90;46.01;102183.72;5005981;28;45831;-85
2022/03/26 07:52:34;;;;;;;;;56.50;43.25;;;;;12.08;45.79;102208.41;5010349;28;45402;-84
2022/03/26 07:55:00;;;;;;;;;55.00;44.25;;;;;11.81;46.13;102155.13;5009590;28;45264;-86
2022/03/26 07:57:26;;;;;;;;;45.00;34.00;;;;;11.86;45.66;102159.84;4990703;28;47200;-85
2022/03/26 07:59:52;;;;;;;;;54.00;43.00;;;;;12.04;45.18;102185.34;5009426;28;45418;-88
2022/03/26 08:02:17;;;;;;;;;54.25;42.25;;;;;12.01;44.59;102169.38;5009441;28;45075;-86
2022/03/26 08:04:45;;;;;;;;;55.33;44.00;;;;;12.01;44.75;102167.63;4991862;28;45486;-83
2022/03/26 08:07:11;;;;;;;;;51.50;42.50;;;;;11.98;44.95;102159.59;5010459;28;45757;-87
2022/03/26 08:09:36;;;;;;;;;58.75;46.50;;;;;12.30;44.35;102208.66;5009879;28;45672;-87
2022/03/26 08:12:03;;;;;;;;;57.00;45.00;;;;;11.94;44.15;102138.28;5010872;28;45459;-87
2022/03/26 08:14:30;;;;;;;;;55.00;44.00;;;;;12.09;44.20;102163.66;5010256;28;45308;-85
2022/03/26 08:16:55;;;;;;;;;54.75;41.25;;;;;12.09;43.75;102171.56;4991844;28;47486;-86
2022/03/26 08:19:20;;;;;;;;;57.00;45.75;;;;;12.53;43.97;102235.31;5011046;28;45398;-86
2022/03/26 08:21:46;;;;;;;;;51.00;42.25;;;;;12.13;44.04;102155.09;5011538;28;45532;-85
2022/03/26 08:24:12;;;;;;;;;53.00;42.50;;;;;12.10;44.03;102143.47;5010398;28;45222;-86
2022/03/26 08:26:38;;;;;;;;;55.50;43.25;;;;;12.20;43.52;102148.38;5011165;28;45972;-87
2022/03/26 08:29:04;;;;;;;;;61.25;46.50;;;;;12.63;43.79;102217.38;5011366;28;45005;-86
2022/03/26 08:31:31;;;;;;;;;56.50;43.25;;;;;12.22;43.37;102136.22;5007586;28;45124;-86
2022/03/26 08:33:57;;;;;;;;;54.75;43.00;;;;;12.74;43.80;102228.44;5011241;28;45089;-87
2022/03/26 08:36:24;;;;;;;;;57.75;44.75;;;;;12.79;43.40;102220.75;5010575;28;45476;-85
2022/03/26 08:38:50;;;;;;;;;52.25;42.00;;;;;12.60;43.52;102182.91;5010908;28;45140;-86
2022/03/26 08:41:19;;;;;;;;;44.50;35.00;;;;;12.93;43.45;102230.25;5011047;28;45119;-87
2022/03/26 08:43:45;;;;;;;;;50.75;41.00;;;;;12.99;43.37;102233.19;5011356;28;45323;-87
2022/03/26 08:46:10;;;;;;;;;57.50;45.00;;;;;12.90;43.04;102204.59;5009130;28;45207;-83
2022/03/26 08:48:36;;;;;;;;;53.50;44.75;;;;;12.67;43.11;102151.59;5009840;28;45097;-85
2022/03/26 08:51:02;;;;;;;;;57.00;45.00;;;;;12.72;43.34;102155.34;5010623;28;45068;-86
2022/03/26 08:53:28;;;;;;;;;57.50;44.75;;;;;12.83;43.05;102165.59;5009802;28;45104;-87
2022/03/26 08:55:54;;;;;;;;;53.25;44.50;;;;;13.08;42.95;102198.44;5009848;28;46138;-86
2022/03/26 08:58:19;;;;;;;;;53.25;41.00;;;;;13.12;42.91;102197.75;5009607;28;45230;-86
2022/03/26 09:00:51;;;;;;;;;57.25;44.25;;;;;12.83;42.70;102136.56;5010149;28;45273;-87
2022/03/26 09:03:17;;;;;;;;;55.75;45.25;;;;;13.09;42.85;102166.81;5010334;28;44935;-87
2022/03/26 09:05:43;;;;;;;;;54.00;43.50;;;;;13.25;42.56;102181.69;5010799;28;45869;-85
2022/03/26 09:08:08;;;;;;;;;54.50;43.00;;;;;13.17;42.37;102164.53;5010186;28;45299;-83
2022/03/26 09:10:35;;;;;;;;;54.25;43.00;;;;;13.52;42.17;102210.19;5009635;28;45087;-85
2022/03/26 09:13:00;;;;;;;;;54.50;43.25;;;;;13.00;42.31;102121.50;5009740;28;45007;-84
2022/03/26 09:15:25;;;;;;;;;55.50;43.50;;;;;13.59;41.99;102201.72;5009103;28;45597;-86
2022/03/26 09:17:51;;;;;;;;;55.75;43.25;;;;;13.78;42.22;102225.50;5009169;28;45278;-85
2022/03/26 09:20:16;;;;;;;;;57.67;47.33;;;;;13.68;42.16;102199.50;5008920;28;45122;-85
2022/03/26 09:22:42;;;;;;;;;59.67;45.67;;;;;13.56;41.59;102157.59;5010219;28;45164;-87
2022/03/26 09:25:08;;;;;;;;;52.25;42.75;;;;;13.55;41.42;102144.31;5009693;28;45535;-88
2022/03/26 09:27:34;;;;;;;;;53.00;42.50;;;;;13.58;41.91;102137.41;5009905;28;45211;-88
2022/03/26 09:29:59;;;;;;;;;54.00;44.00;;;;;13.61;41.50;102132.28;5010721;28;45252;-87
2022/03/26 09:32:24;;;;;;;;;55.25;42.00;;;;;13.96;41.16;102192.81;5010494;28;44997;-88
2022/03/26 09:34:50;;;;;;;;;55.00;44.00;;;;;13.86;41.17;102152.75;5010226;28;46322;-85
2022/03/26 09:37:16;;;;;;;;;56.33;45.33;;;;;14.26;40.83;102214.38;5010512;28;45213;-87
2022/03/26 09:39:42;;;;;;;;;56.00;43.50;;;;;14.02;41.20;102174.56;5009428;28;45045;-84
2022/03/26 09:42:10;;;;;;;;;52.00;42.25;;;;;13.65;40.96;102106.91;5010031;28;45086;-89
2022/03/26 09:44:37;;;;;;;;;55.50;44.75;;;;;13.80;41.27;102107.56;4989725;28;46865;-83
2022/03/26 09:47:10;;;;;;;;;60.75;46.50;;;;;14.54;40.80;102224.44;5001511;28;45513;-83
2022/03/26 09:49:37;;;;;;;;;57.75;43.50;;;;;14.48;40.86;102187.13;4996829;28;45206;-85
2022/03/26 09:52:05;;;;;;;;;55.75;45.00;;;;;14.45;40.40;102167.63;4997747;28;45478;-84
2022/03/26 09:54:31;;;;;;;;;54.50;43.50;;;;;14.56;40.51;102189.25;4997429;28;45746;-82
2022/03/26 09:56:56;;;;;;;;;43.00;37.00;;;;;14.67;40.28;102201.16;4995760;28;45085;-82
2022/03/26 09:59:22;;;;;;;;;54.00;44.25;;;;;14.15;40.37;102100.22;4997378;28;45597;-83
2022/03/26 10:01:48;;;;;;;;;49.00;37.75;;;;;14.59;40.58;102168.22;4993383;28;45477;-85
2022/03/26 10:04:19;;;;;;;;;52.00;43.50;;;;;14.82;40.01;102202.63;5007502;28;45168;-85
2022/03/26 10:06:55;;;;;;;;;53.75;43.50;;;;;14.60;39.96;102154.16;5011581;28;45599;-83
2022/03/26 10:09:46;;;;;;;;;57.75;45.50;;;;;15.04;39.91;102215.00;5010033;28;45106;-84
2022/03/26 10:12:16;;;;;;;;;54.75;44.25;;;;;15.06;39.57;102210.66;5001507;28;45885;-83
2022/03/26 10:14:48;;;;;;;;;52.75;43.75;;;;;14.83;39.63;102152.44;4993267;28;45235;-82
2022/03/26 10:17:24;;;;;;;;;53.00;42.25;;;;;15.25;39.90;102213.19;4996023;28;45285;-83
2022/03/26 10:19:54;;;;;;;;;51.50;42.00;;;;;15.20;39.48;102185.63;5002133;28;45283;-81
2022/03/26 10:22:25;;;;;;;;;58.00;46.00;;;;;15.43;39.66;102203.31;5021679;28;45264;-83
2022/03/26 10:24:52;;;;;;;;;58.75;46.00;;;;;15.42;39.59;102192.69;5009401;28;46069;-82
2022/03/26 10:27:18;;;;;;;;;56.50;44.00;;;;;15.59;39.15;102199.50;5009844;28;45570;-82
2022/03/26 10:29:59;;;;;;;;;59.75;47.25;;;;;15.34;38.72;102152.63;5009893;28;45146;-83
2022/03/26 10:32:39;;;;;;;;;55.00;44.75;;;;;15.52;38.60;102164.75;5003780;28;45323;-83
2022/03/26 10:35:07;;;;;;;;;57.00;46.00;;;;;15.51;38.62;102142.66;4997046;28;45737;-81
2022/03/26 10:37:43;;;;;;;;;54.25;43.00;;;;;15.80;38.20;102179.94;5019630;28;45468;-82
2022/03/26 10:40:23;;;;;;;;;40.00;34.00;;;;;15.76;38.87;102160.38;4996357;28;45133;-82
2022/03/26 10:42:59;;;;;;;;;56.25;46.00;;;;;15.94;38.14;102168.09;5009486;28;45051;-81
2022/03/26 10:45:24;;;;;;;;;56.50;47.00;;;;;16.15;38.31;102200.66;5001590;28;47175;-83
2022/03/26 10:47:54;;;;;;;;;58.75;47.25;;;;;16.07;37.99;102174.75;5010007;28;45159;-81
2022/03/26 10:50:20;;;;;;;;;60.75;48.25;;;;;16.12;38.13;102160.78;5007119;28;45125;-81
2022/03/26 10:52:45;;;;;;;;;56.75;46.00;;;;;16.31;37.78;102183.56;5009743;28;45161;-82
2022/03/26 10:55:18;;;;;;;;;57.00;45.75;;;;;16.28;37.39;102154.25;5004806;28;45667;-82
2022/03/26 10:57:45;;;;;;;;;53.25;44.25;;;;;16.27;37.62;102140.94;5007733;28;45476;-82
2022/03/26 11:00:13;;;;;;;;;54.25;45.00;;;;;16.54;37.83;102175.44;4970486;28;45194;-83
2022/03/26 11:02:38;;;;;;;;;57.25;45.00;;;;;16.73;37.49;102185.84;4970697;28;45212;-84
2022/03/26 11:05:05;;;;;;;;;57.00;45.00;;;;;16.73;37.58;102173.47;4971051;28;45796;-83
2022/03/26 11:07:32;;;;;;;;;57.00;44.25;;;;;16.72;36.91;102138.91;4970043;28;45030;-84